Abilene, Kansas
Current Conditions -  °F | °C
As of 8:01 AM on Saturday 22 Nov 2014 (Local Time) from KSLN Reporting Station
Haze Haze  
Wind Chill: 41°   Ceiling: 400
Heat Index: 41°   Visibility: 3mi
Dew Point: 39°   Wind: 3mph
Humidity: 93%   Direction: 190°S
Pressure: 29.92"   Gusts: NA
Location:  38.92°N, 97.21°W
Report Text: KSLN 221401Z 19003KT 3SM BR OVC004 05/04 A2992 RMK AO2 T00500039
Loading
Personal Weather Stations






























Interactive Weather Map New forecast layout! Learn more

10-Day Weather Forecast

Advertisements
Track Severe Weather on mobile